Bayamo — PCMA — position and weather

sailwx.info

Track history (hours):
 
Tides and Currents Weather Stations Pressure Air Temp Water Temp Dewpoint Dewpoint Depression Visibility Wind Speed Wind Dir Waves Ship Positions

Bayamo

Last reported at 2017-Nov-20 00:28 UTC. Time now 2017-Nov-20 02:15 UTC.
Position N 50°43' W 001°05'.

Length 88 m; draft 4.3 m.

Type: Ship (hazmat cat D). MMSI: 245669000.

Date/timePositionNaut miles runAvg speedWind from/ knotsBaromVisibWave heightAir tempDewpointWater temp
2017-Nov-20 00:28N 50°43' W 001°05'0 0.0
2017-Nov-19 23:58N 50°43' W 001°05'0 0.0
2017-Nov-19 23:28N 50°43' W 001°05'0 0.0
2017-Nov-19 22:58N 50°43' W 001°05'0 0.0
2017-Nov-19 22:28N 50°43' W 001°05'0 0.0
2017-Nov-19 21:58N 50°43' W 001°05'0 0.1
2017-Nov-19 21:28N 50°43' W 001°05'0 0.1
2017-Nov-19 20:58N 50°43' W 001°04'0 0.1
2017-Nov-19 20:28N 50°43' W 001°04'0 0.0
2017-Nov-19 19:58N 50°43' W 001°04'0 0.0
2017-Nov-19 19:28N 50°43' W 001°04'0 0.0
2017-Nov-19 18:58N 50°43' W 001°04'0 0.1
2017-Nov-19 18:28N 50°43' W 001°04'0 0.1
2017-Nov-19 17:58N 50°43' W 001°04'0 0.0
2017-Nov-19 17:28N 50°43' W 001°04'0 0.0
2017-Nov-19 16:58N 50°43' W 001°04'0 0.0
2017-Nov-19 16:28N 50°43' W 001°04'0 0.0
2017-Nov-19 15:58N 50°43' W 001°04'0 0.0
2017-Nov-19 15:28N 50°43' W 001°04'0 0.0
2017-Nov-19 14:58N 50°43' W 001°04'0 0.0
2017-Nov-19 14:28N 50°43' W 001°04'0 0.2
2017-Nov-19 13:58N 50°43' W 001°05'0 0.0
2017-Nov-19 13:28N 50°43' W 001°05'0 0.0
2017-Nov-19 12:58N 50°43' W 001°05'0 0.0
2017-Nov-19 12:28N 50°43' W 001°05'0 0.0
2017-Nov-19 11:58N 50°43' W 001°05'0 0.0
2017-Nov-19 11:28N 50°43' W 001°05'0 0.0
2017-Nov-19 10:58N 50°43' W 001°05'0 0.0
2017-Nov-19 10:28N 50°43' W 001°05'0 0.0
2017-Nov-19 09:58N 50°43' W 001°05'0 0.1
2017-Nov-19 09:28N 50°43' W 001°05'0 0.1
2017-Nov-19 08:58N 50°43' W 001°04'0 0.0
2017-Nov-19 08:28N 50°43' W 001°04'0 0.0
2017-Nov-19 07:58N 50°43' W 001°04'0 0.0
2017-Nov-19 07:28N 50°43' W 001°04'0 0.0
2017-Nov-19 06:58N 50°43' W 001°04'0 0.0
2017-Nov-19 06:28N 50°43' W 001°04'0 0.0
2017-Nov-19 05:58N 50°43' W 001°04'0 0.0
2017-Nov-19 05:28N 50°43' W 001°04'0 0.0
2017-Nov-19 04:58N 50°43' W 001°04'0 0.0
2017-Nov-19 04:28N 50°43' W 001°04'0 0.0
2017-Nov-19 03:58N 50°43' W 001°04'0 0.0
2017-Nov-19 03:28N 50°43' W 001°04'0 0.0
2017-Nov-19 02:58N 50°43' W 001°04'0 0.0
2017-Nov-19 02:28N 50°43' W 001°04'0 0.0
2017-Nov-19 01:58N 50°43' W 001°04'0 0.1
2017-Nov-19 01:31N 50°43' W 001°04'4 8.6
2017-Nov-19 01:00N 50°41' W 000°59'4 8.9
2017-Nov-19 00:30N 50°37' W 000°55'612.5
2017-Nov-19 00:01N 50°36' W 000°45'611.7
2017-Nov-18 23:31N 50°35' W 000°36'510.7
2017-Nov-18 23:00N 50°34' W 000°28'5 9.6
2017-Nov-18 22:29N 50°33' W 000°20'4 9.1
2017-Nov-18 22:01N 50°33' W 000°13'4 8.4
2017-Nov-18 21:30N 50°32' W 000°07'4 7.8
2017-Nov-18 21:00N 50°32' W 000°01'4 7.8
2017-Nov-18 20:30N 50°33' E 000°05'4 7.2
2017-Nov-18 20:00N 50°34' E 000°11'4 6.4
2017-Nov-18 19:23N 50°35' E 000°17'3 6.6
2017-Nov-18 18:57N 50°36' E 000°21'3 7.4
2017-Nov-18 18:30N 50°36' E 000°26'4 7.6
2017-Nov-18 18:00N 50°38' E 000°32'4 8.0
2017-Nov-18 17:31N 50°39' E 000°38'4 8.5
2017-Nov-18 17:01N 50°41' E 000°44'5 9.5
2017-Nov-18 16:31N 50°43' E 000°50'510.1
2017-Nov-18 16:00N 50°46' E 000°57'17 9.5
2017-Nov-18 14:14N 50°56' E 001°19'2 8.8
2017-Nov-18 14:00N 50°57' E 001°21'4 8.7
2017-Nov-18 13:30N 51°01' E 001°25'4 8.0
2017-Nov-18 12:59N 51°04' E 001°29'4 7.5
2017-Nov-18 12:30N 51°06' E 001°33'4 7.3
2017-Nov-18 12:00N 51°09' E 001°37'4 8.1
2017-Nov-18 11:30N 51°13' E 001°40'5 9.4
2017-Nov-18 11:00N 51°18' E 001°41'510.0
2017-Nov-18 10:31N 51°23' E 001°43'510.7
2017-Nov-18 10:01N 51°28' E 001°45'611.4
2017-Nov-18 09:31N 51°33' E 001°46'612.7
2017-Nov-18 09:01N 51°40' E 001°45'713.2
2017-Nov-18 08:31N 51°46' E 001°44'612.9
2017-Nov-18 08:01N 51°53' E 001°44'612.7
2017-Nov-18 07:31N 51°59' E 001°46'612.6
2017-Nov-18 07:00N 52°05' E 001°49'612.2
2017-Nov-18 06:31N 52°11' E 001°53'2710.3
2017-Nov-18 03:54N 52°37' E 001°58'4 9.4
2017-Nov-18 03:29N 52°41' E 001°56'5 9.0
2017-Nov-18 02:59N 52°46' E 001°55'4 8.8
2017-Nov-18 02:31N 52°48' E 001°49'4 8.9
2017-Nov-18 02:01N 52°50' E 001°43'4 8.4
2017-Nov-18 01:31N 52°54' E 001°39'4 8.4
2017-Nov-18 01:00N 52°57' E 001°34'4 8.6
2017-Nov-18 00:31N 52°60' E 001°29'5 9.2
2017-Nov-18 00:01N 53°03' E 001°24'5 9.4
2017-Nov-17 23:31N 53°08' E 001°21'5 9.6
2017-Nov-17 23:01N 53°12' E 001°17'6 9.5
2017-Nov-17 22:23N 53°17' E 001°13'5110.6
2017-Nov-17 17:34N 53°58' E 000°21'211.9
2017-Nov-17 17:23N 53°60' E 000°19'512.0
2017-Nov-17 17:01N 54°03' E 000°14'612.2
2017-Nov-17 16:30N 54°08' E 000°07'612.4
2017-Nov-17 16:01N 54°13' E 000°01'612.4
2017-Nov-17 15:30N 54°18' W 000°06'612.5
2017-Nov-17 15:00N 54°22' W 000°13'612.4
2017-Nov-17 14:30N 54°27' W 000°20'712.1
2017-Nov-17 13:58N 54°32' W 000°28'3 0.1
2017-Nov-16 09:44N 54°34' W 000°28'1 6.1
2017-Nov-16 09:30N 54°34' W 000°26'5 9.1
2017-Nov-16 09:00N 54°31' W 000°20'510.5
2017-Nov-16 08:31N 54°27' W 000°14'510.7
2017-Nov-16 08:00N 54°23' W 000°08'510.6
2017-Nov-16 07:30N 54°19' W 000°02'510.5
2017-Nov-16 07:00N 54°14' E 000°04'510.3
2017-Nov-16 06:30N 54°10' E 000°09'5 9.9
2017-Nov-16 06:00N 54°06' E 000°14'5 9.5
2017-Nov-16 05:30N 54°03' E 000°19'53 8.8
2017-Nov-15 23:27N 53°19' E 001°11'510.9
2017-Nov-15 23:00N 53°15' E 001°15'510.9
2017-Nov-15 22:31N 53°10' E 001°20'510.5
2017-Nov-15 22:01N 53°06' E 001°24'510.1
2017-Nov-15 21:31N 53°02' E 001°29'5 9.7
2017-Nov-15 21:00N 52°58' E 001°33'5 9.0
2017-Nov-15 20:31N 52°54' E 001°39'4 8.3
2017-Nov-15 20:00N 52°52' E 001°44'4 7.9
2017-Nov-15 19:31N 52°49' E 001°49'4 7.3
2017-Nov-15 19:00N 52°47' E 001°54'4 6.9
2017-Nov-15 18:28N 52°44' E 001°58'79 8.3
2017-Nov-15 08:59N 51°42' E 003°16'510.9
2017-Nov-15 08:30N 51°38' E 003°21'611.0
2017-Nov-15 08:00N 51°33' E 003°25'5 9.9
2017-Nov-15 07:30N 51°29' E 003°30'5 9.4
2017-Nov-15 07:01N 51°26' E 003°36'4 8.9
2017-Nov-15 06:30N 51°25' E 003°43'611.4
2017-Nov-15 06:00N 51°21' E 003°49'611.9
2017-Nov-15 05:30N 51°24' E 003°57'3 6.3
2017-Nov-15 05:01N 51°24' E 004°02'611.4
2017-Nov-15 04:30N 51°24' E 004°11'611.9
2017-Nov-15 04:00N 51°19' E 004°16'3 6.3
2017-Nov-15 03:30N 51°17' E 004°20'0 0.4
2017-Nov-15 03:01N 51°17' E 004°20'2 3.2
2017-Nov-15 02:30N 51°18' E 004°20'1 2.4
2017-Nov-15 02:00N 51°19' E 004°18'0 0.0
2017-Nov-15 00:54N 51°19' E 004°18'0 0.0
2017-Nov-15 00:27N 51°19' E 004°18'0 0.0
2017-Nov-14 23:57N 51°19' E 004°18'0 0.0
2017-Nov-14 23:24N 51°19' E 004°18'0 0.0
2017-Nov-14 22:03N 51°19' E 004°18'0 0.0
2017-Nov-14 21:48N 51°19' E 004°18'0 0.0
2017-Nov-14 21:18N 51°19' E 004°18'0 0.0
2017-Nov-14 20:54N 51°19' E 004°18'0 0.0
2017-Nov-14 19:48N 51°19' E 004°18'0 0.0
2017-Nov-14 19:18N 51°19' E 004°18'0 0.0
2017-Nov-14 18:21N 51°19' E 004°18'0 0.0
2017-Nov-14 17:48N 51°19' E 004°18'0 0.0
2017-Nov-14 17:12N 51°19' E 004°18'0 0.0
2017-Nov-14 16:42N 51°19' E 004°18'0 0.0
2017-Nov-14 16:30N 51°19' E 004°18'0 0.0
2017-Nov-14 15:51N 51°19' E 004°18'0 0.0
2017-Nov-14 14:42N 51°19' E 004°18'0 0.0
2017-Nov-14 13:27N 51°19' E 004°18'0 0.0
2017-Nov-14 12:54N 51°19' E 004°18'0 0.0
2017-Nov-14 12:18N 51°19' E 004°18'0 0.0
2017-Nov-14 11:42N 51°19' E 004°18'0 0.0
2017-Nov-14 11:15N 51°19' E 004°18'0 0.0
2017-Nov-14 11:00N 51°19' E 004°18'0 0.0
2017-Nov-14 08:15N 51°19' E 004°18'0 0.7
2017-Nov-14 08:01N 51°19' E 004°18'2 3.5
2017-Nov-14 07:30N 51°21' E 004°17'0 0.0
2017-Nov-14 07:01N 51°21' E 004°17'0 0.0
2017-Nov-14 06:30N 51°21' E 004°17'0 0.0
2017-Nov-14 06:01N 51°21' E 004°17'0 0.0
2017-Nov-14 05:30N 51°21' E 004°17'2 4.4
2017-Nov-14 05:00N 51°21' E 004°14'3 6.2
2017-Nov-14 04:30N 51°23' E 004°10'4 8.9
2017-Nov-14 04:01N 51°23' E 004°03'4 8.0
2017-Nov-14 03:30N 51°26' E 003°59'5 9.4
2017-Nov-14 03:00N 51°22' E 003°55'4 8.6
2017-Nov-14 02:31N 51°21' E 003°49'5 9.1
2017-Nov-14 02:00N 51°23' E 003°43'4 8.9
2017-Nov-14 01:31N 51°26' E 003°36'4 8.5
2017-Nov-14 01:00N 51°25' E 003°29'510.1
2017-Nov-14 00:31N 51°24' E 003°22'510.8
2017-Nov-14 00:01N 51°23' E 003°13'611.8
2017-Nov-13 23:30N 51°22' E 003°04'612.1
2017-Nov-13 23:00N 51°22' E 002°54'611.5
2017-Nov-13 22:27N 51°22' E 002°44'510.5
2017-Nov-13 22:00N 51°22' E 002°37'24 1.2
2017-Nov-13 01:58N 51°02' E 002°16'0 0.0
2017-Nov-13 01:28N 51°02' E 002°16'0 0.0
2017-Nov-13 00:49N 51°02' E 002°16'0 0.0
2017-Nov-13 00:28N 51°02' E 002°16'0 0.0
2017-Nov-12 23:58N 51°02' E 002°16'0 0.0
2017-Nov-12 23:25N 51°02' E 002°16'0 0.0
2017-Nov-12 22:58N 51°02' E 002°16'0 0.0
2017-Nov-12 21:58N 51°02' E 002°16'0 0.0
2017-Nov-12 21:28N 51°02' E 002°16'0 0.0
2017-Nov-12 20:55N 51°02' E 002°16'0 0.0
2017-Nov-12 20:19N 51°02' E 002°16'0 0.0
2017-Nov-12 19:58N 51°02' E 002°16'0 0.0
2017-Nov-12 19:28N 51°02' E 002°16'0 0.0
2017-Nov-12 18:55N 51°02' E 002°16'0 0.0
2017-Nov-12 18:28N 51°02' E 002°16'0 0.0
2017-Nov-12 17:40N 51°02' E 002°16'0 0.0
2017-Nov-12 17:28N 51°02' E 002°16'0 0.0
2017-Nov-12 16:52N 51°02' E 002°16'0 0.0
2017-Nov-12 16:28N 51°02' E 002°16'0 0.0
2017-Nov-12 15:55N 51°02' E 002°16'0 0.0
2017-Nov-12 15:28N 51°02' E 002°16'0 0.0
2017-Nov-12 14:55N 51°02' E 002°16'0 0.0
2017-Nov-12 14:13N 51°02' E 002°16'0 0.0
2017-Nov-12 13:58N 51°02' E 002°16'0 0.0
2017-Nov-12 13:28N 51°02' E 002°16'0 0.0
2017-Nov-12 12:58N 51°02' E 002°16'0 0.0
2017-Nov-12 12:25N 51°02' E 002°16'0 0.0
2017-Nov-12 11:58N 51°02' E 002°16'0 0.0
2017-Nov-12 11:28N 51°02' E 002°16'0 0.0
2017-Nov-12 10:49N 51°02' E 002°16'0 0.0
2017-Nov-12 10:10N 51°02' E 002°16'0 0.0
2017-Nov-12 09:58N 51°02' E 002°16'0 0.0
2017-Nov-12 09:10N 51°02' E 002°16'0 0.0
2017-Nov-12 08:55N 51°02' E 002°16'0 0.0
2017-Nov-12 08:22N 51°02' E 002°16'0 0.0
2017-Nov-12 07:58N 51°02' E 002°16'0 0.0
2017-Nov-12 07:22N 51°02' E 002°16'0 0.0
2017-Nov-12 06:34N 51°02' E 002°16'0 0.0
2017-Nov-12 06:04N 51°02' E 002°16'0 0.0
2017-Nov-12 05:40N 51°02' E 002°16'0 0.0
2017-Nov-12 05:28N 51°02' E 002°16'0 0.0
2017-Nov-12 04:46N 51°02' E 002°16'0 0.0
2017-Nov-12 04:22N 51°02' E 002°16'0 0.0
2017-Nov-12 03:58N 51°02' E 002°16'0 0.0
2017-Nov-12 03:28N 51°02' E 002°16'0 0.0
2017-Nov-12 02:22N 51°02' E 002°16'0 0.0
2017-Nov-12 01:40N 51°02' E 002°16'0 0.0
2017-Nov-12 00:34N 51°02' E 002°16'0 0.0
2017-Nov-12 00:28N 51°02' E 002°16'0 0.0
2017-Nov-11 23:58N 51°02' E 002°16'0 0.0
2017-Nov-11 23:10N 51°02' E 002°16'0 0.0
2017-Nov-11 22:58N 51°02' E 002°16'0 0.0
2017-Nov-11 21:54N 51°02' E 002°16'1 1.9
2017-Nov-11 21:26N 51°03' E 002°17'3 6.3
2017-Nov-11 20:58N 51°03' E 002°21'0 0.7
2017-Nov-11 20:27N 51°03' E 002°21'4 9.0
2017-Nov-11 20:00N 51°05' E 002°27'5 9.4
2017-Nov-11 19:30N 51°08' E 002°32'1 1.6
2017-Nov-11 18:59N 51°09' E 002°33'1 1.3
2017-Nov-11 18:30N 51°09' E 002°34'5 9.1
2017-Nov-11 17:59N 51°13' E 002°38'510.7
2017-Nov-11 17:30N 51°18' E 002°42'2 4.8
2017-Nov-11 17:00N 51°20' E 002°40'2 3.0
2017-Nov-11 16:18N 51°18' E 002°42'2 4.8
2017-Nov-11 15:56N 51°20' E 002°42'1 2.8
2017-Nov-11 15:30N 51°19' E 002°42'5 9.3
2017-Nov-11 15:00N 51°22' E 002°47'611.5
2017-Nov-11 14:30N 51°22' E 002°57'611.7
2017-Nov-11 14:01N 51°22' E 003°06'611.8
2017-Nov-11 13:30N 51°23' E 003°15'611.9
2017-Nov-11 13:00N 51°24' E 003°25'612.1
2017-Nov-11 12:30N 51°25' E 003°34'611.5
2017-Nov-11 12:00N 51°23' E 003°43'612.5
2017-Nov-11 11:31N 51°21' E 003°53'612.9
2017-Nov-11 11:01N 51°26' E 003°59'611.5
2017-Nov-11 10:31N 51°22' E 004°05'5 9.7
2017-Nov-11 10:01N 51°22' E 004°13'3 6.3
2017-Nov-11 09:30N 51°21' E 004°17'0 0.0
2017-Nov-11 09:00N 51°21' E 004°17'1 1.8
2017-Nov-11 08:31N 51°20' E 004°18'1 2.1
2017-Nov-11 08:00N 51°19' E 004°18'0 0.0
2017-Nov-11 06:41N 51°19' E 004°18'0 0.0
2017-Nov-11 05:20N 51°19' E 004°18'0 0.0
2017-Nov-11 04:53N 51°19' E 004°18'0 0.0
2017-Nov-11 04:23N 51°19' E 004°18'0 0.0
2017-Nov-11 03:50N 51°19' E 004°18'0 0.0
2017-Nov-11 03:29N 51°19' E 004°18'0 0.0
2017-Nov-11 02:38N 51°19' E 004°18'0 0.0
2017-Nov-11 01:44N 51°19' E 004°18'0 0.0
2017-Nov-10 23:20N 51°19' E 004°18'0 0.0
2017-Nov-10 22:56N 51°19' E 004°18'0 0.0
2017-Nov-10 22:23N 51°19' E 004°18'0 0.0
2017-Nov-10 19:53N 51°19' E 004°18'0 0.0
2017-Nov-10 19:17N 51°19' E 004°18'0 0.0
2017-Nov-10 18:59N 51°19' E 004°18'0 0.0
2017-Nov-10 18:20N 51°19' E 004°18'0 0.0
2017-Nov-10 17:56N 51°19' E 004°18'0 0.0
2017-Nov-10 17:11N 51°19' E 004°18'0 0.0
2017-Nov-10 16:50N 51°19' E 004°18'0 0.0
2017-Nov-10 16:20N 51°19' E 004°18'0 0.3
2017-Nov-10 16:01N 51°19' E 004°18'2 3.4
2017-Nov-10 15:30N 51°21' E 004°17'0 0.0
2017-Nov-10 15:00N 51°21' E 004°17'1 2.7
2017-Nov-10 14:30N 51°21' E 004°15'4 8.1
2017-Nov-10 14:01N 51°23' E 004°09'5 9.8
2017-Nov-10 13:31N 51°24' E 004°02'3 6.4
2017-Nov-10 13:01N 51°23' E 003°57'510.7
2017-Nov-10 12:31N 51°21' E 003°50'510.5
2017-Nov-10 12:01N 51°23' E 003°43'4 8.4
2017-Nov-10 11:31N 51°26' E 003°37'5 9.3
2017-Nov-10 11:00N 51°25' E 003°30'5 9.7
2017-Nov-10 10:30N 51°24' E 003°22'5 9.3
2017-Nov-10 10:00N 51°24' E 003°15'510.0
2017-Nov-10 09:31N 51°24' E 003°07'510.8
2017-Nov-10 09:01N 51°23' E 002°58'611.4
2017-Nov-10 08:30N 51°22' E 002°49'4 8.2
2017-Nov-10 08:00N 51°22' E 002°43'4 7.9
2017-Nov-10 07:27N 51°20' E 002°36'0 0.0
2017-Nov-10 06:59N 51°20' E 002°36'0 0.0
2017-Nov-10 06:28N 51°20' E 002°36'0 0.0
2017-Nov-10 05:58N 51°20' E 002°36'0 0.0
2017-Nov-10 05:25N 51°20' E 002°36'0 0.0
2017-Nov-10 04:49N 51°20' E 002°36'0 0.0
2017-Nov-10 04:25N 51°20' E 002°36'0 0.0
2017-Nov-10 03:58N 51°20' E 002°36'0 0.0
2017-Nov-10 03:25N 51°20' E 002°36'0 0.1
2017-Nov-10 02:58N 51°20' E 002°36'0 0.1
2017-Nov-10 02:28N 51°20' E 002°36'0 0.1
2017-Nov-10 01:55N 51°20' E 002°36'0 0.1
2017-Nov-10 01:28N 51°20' E 002°36'0 0.0
2017-Nov-10 00:58N 51°20' E 002°36'0 0.0
2017-Nov-10 00:28N 51°20' E 002°36'  
Track history (hours):
 
Tides and Currents Weather Stations Pressure Air Temp Water Temp Dewpoint Dewpoint Depression Visibility Wind Speed Wind Dir Waves Ship Positions

Bayamo

Last reported at 2017-Nov-20 00:28 UTC. Time now 2017-Nov-20 02:15 UTC.
Position N 50°43' W 001°05'.

Length 88 m; draft 4.3 m.

Type: Ship (hazmat cat D). MMSI: 245669000.

Date/timePositionNaut miles runAvg speedWind from/ knotsBaromVisibWave heightAir tempDewpointWater temp
2017-Nov-20 00:28N 50°43' W 001°05'0 0.0
2017-Nov-19 23:58N 50°43' W 001°05'0 0.0
2017-Nov-19 23:28N 50°43' W 001°05'0 0.0
2017-Nov-19 22:58N 50°43' W 001°05'0 0.0
2017-Nov-19 22:28N 50°43' W 001°05'0 0.0
2017-Nov-19 21:58N 50°43' W 001°05'0 0.1
2017-Nov-19 21:28N 50°43' W 001°05'0 0.1
2017-Nov-19 20:58N 50°43' W 001°04'0 0.1
2017-Nov-19 20:28N 50°43' W 001°04'0 0.0
2017-Nov-19 19:58N 50°43' W 001°04'0 0.0
2017-Nov-19 19:28N 50°43' W 001°04'0 0.0
2017-Nov-19 18:58N 50°43' W 001°04'0 0.1
2017-Nov-19 18:28N 50°43' W 001°04'0 0.1
2017-Nov-19 17:58N 50°43' W 001°04'0 0.0
2017-Nov-19 17:28N 50°43' W 001°04'0 0.0
2017-Nov-19 16:58N 50°43' W 001°04'0 0.0
2017-Nov-19 16:28N 50°43' W 001°04'0 0.0
2017-Nov-19 15:58N 50°43' W 001°04'0 0.0
2017-Nov-19 15:28N 50°43' W 001°04'0 0.0
2017-Nov-19 14:58N 50°43' W 001°04'0 0.0
2017-Nov-19 14:28N 50°43' W 001°04'0 0.2
2017-Nov-19 13:58N 50°43' W 001°05'0 0.0
2017-Nov-19 13:28N 50°43' W 001°05'0 0.0
2017-Nov-19 12:58N 50°43' W 001°05'0 0.0
2017-Nov-19 12:28N 50°43' W 001°05'0 0.0
2017-Nov-19 11:58N 50°43' W 001°05'0 0.0
2017-Nov-19 11:28N 50°43' W 001°05'0 0.0
2017-Nov-19 10:58N 50°43' W 001°05'0 0.0
2017-Nov-19 10:28N 50°43' W 001°05'0 0.0
2017-Nov-19 09:58N 50°43' W 001°05'0 0.1
2017-Nov-19 09:28N 50°43' W 001°05'0 0.1
2017-Nov-19 08:58N 50°43' W 001°04'0 0.0
2017-Nov-19 08:28N 50°43' W 001°04'0 0.0
2017-Nov-19 07:58N 50°43' W 001°04'0 0.0
2017-Nov-19 07:28N 50°43' W 001°04'0 0.0
2017-Nov-19 06:58N 50°43' W 001°04'0 0.0
2017-Nov-19 06:28N 50°43' W 001°04'0 0.0
2017-Nov-19 05:58N 50°43' W 001°04'0 0.0
2017-Nov-19 05:28N 50°43' W 001°04'0 0.0
2017-Nov-19 04:58N 50°43' W 001°04'0 0.0
2017-Nov-19 04:28N 50°43' W 001°04'0 0.0
2017-Nov-19 03:58N 50°43' W 001°04'0 0.0
2017-Nov-19 03:28N 50°43' W 001°04'0 0.0
2017-Nov-19 02:58N 50°43' W 001°04'0 0.0
2017-Nov-19 02:28N 50°43' W 001°04'0 0.0
2017-Nov-19 01:58N 50°43' W 001°04'0 0.1
2017-Nov-19 01:31N 50°43' W 001°04'4 8.6
2017-Nov-19 01:00N 50°41' W 000°59'4 8.9
2017-Nov-19 00:30N 50°37' W 000°55'612.5
2017-Nov-19 00:01N 50°36' W 000°45'611.7
2017-Nov-18 23:31N 50°35' W 000°36'510.7
2017-Nov-18 23:00N 50°34' W 000°28'5 9.6
2017-Nov-18 22:29N 50°33' W 000°20'4 9.1
2017-Nov-18 22:01N 50°33' W 000°13'4 8.4
2017-Nov-18 21:30N 50°32' W 000°07'4 7.8
2017-Nov-18 21:00N 50°32' W 000°01'4 7.8
2017-Nov-18 20:30N 50°33' E 000°05'4 7.2
2017-Nov-18 20:00N 50°34' E 000°11'4 6.4
2017-Nov-18 19:23N 50°35' E 000°17'3 6.6
2017-Nov-18 18:57N 50°36' E 000°21'3 7.4
2017-Nov-18 18:30N 50°36' E 000°26'4 7.6
2017-Nov-18 18:00N 50°38' E 000°32'4 8.0
2017-Nov-18 17:31N 50°39' E 000°38'4 8.5
2017-Nov-18 17:01N 50°41' E 000°44'5 9.5
2017-Nov-18 16:31N 50°43' E 000°50'510.1
2017-Nov-18 16:00N 50°46' E 000°57'17 9.5
2017-Nov-18 14:14N 50°56' E 001°19'2 8.8
2017-Nov-18 14:00N 50°57' E 001°21'4 8.7
2017-Nov-18 13:30N 51°01' E 001°25'4 8.0
2017-Nov-18 12:59N 51°04' E 001°29'4 7.5
2017-Nov-18 12:30N 51°06' E 001°33'4 7.3
2017-Nov-18 12:00N 51°09' E 001°37'4 8.1
2017-Nov-18 11:30N 51°13' E 001°40'5 9.4
2017-Nov-18 11:00N 51°18' E 001°41'510.0
2017-Nov-18 10:31N 51°23' E 001°43'510.7
2017-Nov-18 10:01N 51°28' E 001°45'611.4
2017-Nov-18 09:31N 51°33' E 001°46'612.7
2017-Nov-18 09:01N 51°40' E 001°45'713.2
2017-Nov-18 08:31N 51°46' E 001°44'612.9
2017-Nov-18 08:01N 51°53' E 001°44'612.7
2017-Nov-18 07:31N 51°59' E 001°46'612.6
2017-Nov-18 07:00N 52°05' E 001°49'612.2
2017-Nov-18 06:31N 52°11' E 001°53'2710.3
2017-Nov-18 03:54N 52°37' E 001°58'4 9.4
2017-Nov-18 03:29N 52°41' E 001°56'5 9.0
2017-Nov-18 02:59N 52°46' E 001°55'4 8.8
2017-Nov-18 02:31N 52°48' E 001°49'4 8.9
2017-Nov-18 02:01N 52°50' E 001°43'4 8.4
2017-Nov-18 01:31N 52°54' E 001°39'4 8.4
2017-Nov-18 01:00N 52°57' E 001°34'4 8.6
2017-Nov-18 00:31N 52°60' E 001°29'5 9.2
2017-Nov-18 00:01N 53°03' E 001°24'5 9.4
2017-Nov-17 23:31N 53°08' E 001°21'5 9.6
2017-Nov-17 23:01N 53°12' E 001°17'6 9.5
2017-Nov-17 22:23N 53°17' E 001°13'5110.6
2017-Nov-17 17:34N 53°58' E 000°21'211.9
2017-Nov-17 17:23N 53°60' E 000°19'512.0
2017-Nov-17 17:01N 54°03' E 000°14'612.2
2017-Nov-17 16:30N 54°08' E 000°07'612.4
2017-Nov-17 16:01N 54°13' E 000°01'612.4
2017-Nov-17 15:30N 54°18' W 000°06'612.5
2017-Nov-17 15:00N 54°22' W 000°13'612.4
2017-Nov-17 14:30N 54°27' W 000°20'712.1
2017-Nov-17 13:58N 54°32' W 000°28'3 0.1
2017-Nov-16 09:44N 54°34' W 000°28'1 6.1
2017-Nov-16 09:30N 54°34' W 000°26'5 9.1
2017-Nov-16 09:00N 54°31' W 000°20'510.5
2017-Nov-16 08:31N 54°27' W 000°14'510.7
2017-Nov-16 08:00N 54°23' W 000°08'510.6
2017-Nov-16 07:30N 54°19' W 000°02'510.5
2017-Nov-16 07:00N 54°14' E 000°04'510.3
2017-Nov-16 06:30N 54°10' E 000°09'5 9.9
2017-Nov-16 06:00N 54°06' E 000°14'5 9.5
2017-Nov-16 05:30N 54°03' E 000°19'53 8.8
2017-Nov-15 23:27N 53°19' E 001°11'510.9
2017-Nov-15 23:00N 53°15' E 001°15'510.9
2017-Nov-15 22:31N 53°10' E 001°20'510.5
2017-Nov-15 22:01N 53°06' E 001°24'510.1
2017-Nov-15 21:31N 53°02' E 001°29'5 9.7
2017-Nov-15 21:00N 52°58' E 001°33'5 9.0
2017-Nov-15 20:31N 52°54' E 001°39'4 8.3
2017-Nov-15 20:00N 52°52' E 001°44'4 7.9
2017-Nov-15 19:31N 52°49' E 001°49'4 7.3
2017-Nov-15 19:00N 52°47' E 001°54'4 6.9
2017-Nov-15 18:28N 52°44' E 001°58'79 8.3
2017-Nov-15 08:59N 51°42' E 003°16'510.9
2017-Nov-15 08:30N 51°38' E 003°21'611.0
2017-Nov-15 08:00N 51°33' E 003°25'5 9.9
2017-Nov-15 07:30N 51°29' E 003°30'5 9.4
2017-Nov-15 07:01N 51°26' E 003°36'4 8.9
2017-Nov-15 06:30N 51°25' E 003°43'611.4
2017-Nov-15 06:00N 51°21' E 003°49'611.9
2017-Nov-15 05:30N 51°24' E 003°57'3 6.3
2017-Nov-15 05:01N 51°24' E 004°02'611.4
2017-Nov-15 04:30N 51°24' E 004°11'611.9
2017-Nov-15 04:00N 51°19' E 004°16'3 6.3
2017-Nov-15 03:30N 51°17' E 004°20'0 0.4
2017-Nov-15 03:01N 51°17' E 004°20'2 3.2
2017-Nov-15 02:30N 51°18' E 004°20'1 2.4
2017-Nov-15 02:00N 51°19' E 004°18'0 0.0
2017-Nov-15 00:54N 51°19' E 004°18'0 0.0
2017-Nov-15 00:27N 51°19' E 004°18'0 0.0
2017-Nov-14 23:57N 51°19' E 004°18'0 0.0
2017-Nov-14 23:24N 51°19' E 004°18'0 0.0
2017-Nov-14 22:03N 51°19' E 004°18'0 0.0
2017-Nov-14 21:48N 51°19' E 004°18'0 0.0
2017-Nov-14 21:18N 51°19' E 004°18'0 0.0
2017-Nov-14 20:54N 51°19' E 004°18'0 0.0
2017-Nov-14 19:48N 51°19' E 004°18'0 0.0
2017-Nov-14 19:18N 51°19' E 004°18'0 0.0
2017-Nov-14 18:21N 51°19' E 004°18'0 0.0
2017-Nov-14 17:48N 51°19' E 004°18'0 0.0
2017-Nov-14 17:12N 51°19' E 004°18'0 0.0
2017-Nov-14 16:42N 51°19' E 004°18'0 0.0
2017-Nov-14 16:30N 51°19' E 004°18'0 0.0
2017-Nov-14 15:51N 51°19' E 004°18'0 0.0
2017-Nov-14 14:42N 51°19' E 004°18'0 0.0
2017-Nov-14 13:27N 51°19' E 004°18'0 0.0
2017-Nov-14 12:54N 51°19' E 004°18'0 0.0
2017-Nov-14 12:18N 51°19' E 004°18'0 0.0
2017-Nov-14 11:42N 51°19' E 004°18'0 0.0
2017-Nov-14 11:15N 51°19' E 004°18'0 0.0
2017-Nov-14 11:00N 51°19' E 004°18'0 0.0
2017-Nov-14 08:15N 51°19' E 004°18'0 0.7
2017-Nov-14 08:01N 51°19' E 004°18'2 3.5
2017-Nov-14 07:30N 51°21' E 004°17'0 0.0
2017-Nov-14 07:01N 51°21' E 004°17'0 0.0
2017-Nov-14 06:30N 51°21' E 004°17'0 0.0
2017-Nov-14 06:01N 51°21' E 004°17'0 0.0
2017-Nov-14 05:30N 51°21' E 004°17'2 4.4
2017-Nov-14 05:00N 51°21' E 004°14'3 6.2
2017-Nov-14 04:30N 51°23' E 004°10'4 8.9
2017-Nov-14 04:01N 51°23' E 004°03'4 8.0
2017-Nov-14 03:30N 51°26' E 003°59'5 9.4
2017-Nov-14 03:00N 51°22' E 003°55'4 8.6
2017-Nov-14 02:31N 51°21' E 003°49'5 9.1
2017-Nov-14 02:00N 51°23' E 003°43'4 8.9
2017-Nov-14 01:31N 51°26' E 003°36'4 8.5
2017-Nov-14 01:00N 51°25' E 003°29'510.1
2017-Nov-14 00:31N 51°24' E 003°22'510.8
2017-Nov-14 00:01N 51°23' E 003°13'611.8
2017-Nov-13 23:30N 51°22' E 003°04'612.1
2017-Nov-13 23:00N 51°22' E 002°54'611.5
2017-Nov-13 22:27N 51°22' E 002°44'510.5
2017-Nov-13 22:00N 51°22' E 002°37'24 1.2
2017-Nov-13 01:58N 51°02' E 002°16'0 0.0
2017-Nov-13 01:28N 51°02' E 002°16'0 0.0
2017-Nov-13 00:49N 51°02' E 002°16'0 0.0
2017-Nov-13 00:28N 51°02' E 002°16'0 0.0
2017-Nov-12 23:58N 51°02' E 002°16'0 0.0
2017-Nov-12 23:25N 51°02' E 002°16'0 0.0
2017-Nov-12 22:58N 51°02' E 002°16'0 0.0
2017-Nov-12 21:58N 51°02' E 002°16'0 0.0
2017-Nov-12 21:28N 51°02' E 002°16'0 0.0
2017-Nov-12 20:55N 51°02' E 002°16'0 0.0
2017-Nov-12 20:19N 51°02' E 002°16'0 0.0
2017-Nov-12 19:58N 51°02' E 002°16'0 0.0
2017-Nov-12 19:28N 51°02' E 002°16'0 0.0
2017-Nov-12 18:55N 51°02' E 002°16'0 0.0
2017-Nov-12 18:28N 51°02' E 002°16'0 0.0
2017-Nov-12 17:40N 51°02' E 002°16'0 0.0
2017-Nov-12 17:28N 51°02' E 002°16'0 0.0
2017-Nov-12 16:52N 51°02' E 002°16'0 0.0
2017-Nov-12 16:28N 51°02' E 002°16'0 0.0
2017-Nov-12 15:55N 51°02' E 002°16'0 0.0
2017-Nov-12 15:28N 51°02' E 002°16'0 0.0
2017-Nov-12 14:55N 51°02' E 002°16'0 0.0
2017-Nov-12 14:13N 51°02' E 002°16'0 0.0
2017-Nov-12 13:58N 51°02' E 002°16'0 0.0
2017-Nov-12 13:28N 51°02' E 002°16'0 0.0
2017-Nov-12 12:58N 51°02' E 002°16'0 0.0
2017-Nov-12 12:25N 51°02' E 002°16'0 0.0
2017-Nov-12 11:58N 51°02' E 002°16'0 0.0
2017-Nov-12 11:28N 51°02' E 002°16'0 0.0
2017-Nov-12 10:49N 51°02' E 002°16'0 0.0
2017-Nov-12 10:10N 51°02' E 002°16'0 0.0
2017-Nov-12 09:58N 51°02' E 002°16'0 0.0
2017-Nov-12 09:10N 51°02' E 002°16'0 0.0
2017-Nov-12 08:55N 51°02' E 002°16'0 0.0
2017-Nov-12 08:22N 51°02' E 002°16'0 0.0
2017-Nov-12 07:58N 51°02' E 002°16'0 0.0
2017-Nov-12 07:22N 51°02' E 002°16'0 0.0
2017-Nov-12 06:34N 51°02' E 002°16'0 0.0
2017-Nov-12 06:04N 51°02' E 002°16'0 0.0
2017-Nov-12 05:40N 51°02' E 002°16'0 0.0
2017-Nov-12 05:28N 51°02' E 002°16'0 0.0
2017-Nov-12 04:46N 51°02' E 002°16'0 0.0
2017-Nov-12 04:22N 51°02' E 002°16'0 0.0
2017-Nov-12 03:58N 51°02' E 002°16'0 0.0
2017-Nov-12 03:28N 51°02' E 002°16'0 0.0
2017-Nov-12 02:22N 51°02' E 002°16'0 0.0
2017-Nov-12 01:40N 51°02' E 002°16'0 0.0
2017-Nov-12 00:34N 51°02' E 002°16'0 0.0
2017-Nov-12 00:28N 51°02' E 002°16'0 0.0
2017-Nov-11 23:58N 51°02' E 002°16'0 0.0
2017-Nov-11 23:10N 51°02' E 002°16'0 0.0
2017-Nov-11 22:58N 51°02' E 002°16'0 0.0
2017-Nov-11 21:54N 51°02' E 002°16'1 1.9
2017-Nov-11 21:26N 51°03' E 002°17'3 6.3
2017-Nov-11 20:58N 51°03' E 002°21'0 0.7
2017-Nov-11 20:27N 51°03' E 002°21'4 9.0
2017-Nov-11 20:00N 51°05' E 002°27'5 9.4
2017-Nov-11 19:30N 51°08' E 002°32'1 1.6
2017-Nov-11 18:59N 51°09' E 002°33'1 1.3
2017-Nov-11 18:30N 51°09' E 002°34'5 9.1
2017-Nov-11 17:59N 51°13' E 002°38'510.7
2017-Nov-11 17:30N 51°18' E 002°42'2 4.8
2017-Nov-11 17:00N 51°20' E 002°40'2 3.0
2017-Nov-11 16:18N 51°18' E 002°42'2 4.8
2017-Nov-11 15:56N 51°20' E 002°42'1 2.8
2017-Nov-11 15:30N 51°19' E 002°42'5 9.3
2017-Nov-11 15:00N 51°22' E 002°47'611.5
2017-Nov-11 14:30N 51°22' E 002°57'611.7
2017-Nov-11 14:01N 51°22' E 003°06'611.8
2017-Nov-11 13:30N 51°23' E 003°15'611.9
2017-Nov-11 13:00N 51°24' E 003°25'612.1
2017-Nov-11 12:30N 51°25' E 003°34'611.5
2017-Nov-11 12:00N 51°23' E 003°43'612.5
2017-Nov-11 11:31N 51°21' E 003°53'612.9
2017-Nov-11 11:01N 51°26' E 003°59'611.5
2017-Nov-11 10:31N 51°22' E 004°05'5 9.7
2017-Nov-11 10:01N 51°22' E 004°13'3 6.3
2017-Nov-11 09:30N 51°21' E 004°17'0 0.0
2017-Nov-11 09:00N 51°21' E 004°17'1 1.8
2017-Nov-11 08:31N 51°20' E 004°18'1 2.1
2017-Nov-11 08:00N 51°19' E 004°18'0 0.0
2017-Nov-11 06:41N 51°19' E 004°18'0 0.0
2017-Nov-11 05:20N 51°19' E 004°18'0 0.0
2017-Nov-11 04:53N 51°19' E 004°18'0 0.0
2017-Nov-11 04:23N 51°19' E 004°18'0 0.0
2017-Nov-11 03:50N 51°19' E 004°18'0 0.0
2017-Nov-11 03:29N 51°19' E 004°18'0 0.0
2017-Nov-11 02:38N 51°19' E 004°18'0 0.0
2017-Nov-11 01:44N 51°19' E 004°18'0 0.0
2017-Nov-10 23:20N 51°19' E 004°18'0 0.0
2017-Nov-10 22:56N 51°19' E 004°18'0 0.0
2017-Nov-10 22:23N 51°19' E 004°18'0 0.0
2017-Nov-10 19:53N 51°19' E 004°18'0 0.0
2017-Nov-10 19:17N 51°19' E 004°18'0 0.0
2017-Nov-10 18:59N 51°19' E 004°18'0 0.0
2017-Nov-10 18:20N 51°19' E 004°18'0 0.0
2017-Nov-10 17:56N 51°19' E 004°18'0 0.0
2017-Nov-10 17:11N 51°19' E 004°18'0 0.0
2017-Nov-10 16:50N 51°19' E 004°18'0 0.0
2017-Nov-10 16:20N 51°19' E 004°18'0 0.3
2017-Nov-10 16:01N 51°19' E 004°18'2 3.4
2017-Nov-10 15:30N 51°21' E 004°17'0 0.0
2017-Nov-10 15:00N 51°21' E 004°17'1 2.7
2017-Nov-10 14:30N 51°21' E 004°15'4 8.1
2017-Nov-10 14:01N 51°23' E 004°09'5 9.8
2017-Nov-10 13:31N 51°24' E 004°02'3 6.4
2017-Nov-10 13:01N 51°23' E 003°57'510.7
2017-Nov-10 12:31N 51°21' E 003°50'510.5
2017-Nov-10 12:01N 51°23' E 003°43'4 8.4
2017-Nov-10 11:31N 51°26' E 003°37'5 9.3
2017-Nov-10 11:00N 51°25' E 003°30'5 9.7
2017-Nov-10 10:30N 51°24' E 003°22'5 9.3
2017-Nov-10 10:00N 51°24' E 003°15'510.0
2017-Nov-10 09:31N 51°24' E 003°07'510.8
2017-Nov-10 09:01N 51°23' E 002°58'611.4
2017-Nov-10 08:30N 51°22' E 002°49'4 8.2
2017-Nov-10 08:00N 51°22' E 002°43'4 7.9
2017-Nov-10 07:27N 51°20' E 002°36'0 0.0
2017-Nov-10 06:59N 51°20' E 002°36'0 0.0
2017-Nov-10 06:28N 51°20' E 002°36'0 0.0
2017-Nov-10 05:58N 51°20' E 002°36'0 0.0
2017-Nov-10 05:25N 51°20' E 002°36'0 0.0
2017-Nov-10 04:49N 51°20' E 002°36'0 0.0
2017-Nov-10 04:25N 51°20' E 002°36'0 0.0
2017-Nov-10 03:58N 51°20' E 002°36'0 0.0
2017-Nov-10 03:25N 51°20' E 002°36'0 0.1
2017-Nov-10 02:58N 51°20' E 002°36'0 0.1
2017-Nov-10 02:28N 51°20' E 002°36'0 0.1
2017-Nov-10 01:55N 51°20' E 002°36'0 0.1
2017-Nov-10 01:28N 51°20' E 002°36'0 0.0
2017-Nov-10 00:58N 51°20' E 002°36'0 0.0
2017-Nov-10 00:28N 51°20' E 002°36'  

Dump ship's entire track history